sensor_id;sensor_type;location;lat;lon;timestamp;pressure;altitude;pressure_sealevel;temperature;humidity
28588;BME280;15787;49.662;10.162;2022-08-04T00:01:45;98875.88;;;20.57;72.73
28588;BME280;15787;49.662;10.162;2022-08-04T00:04:22;98870.44;;;20.53;72.99
28588;BME280;15787;49.662;10.162;2022-08-04T00:06:59;98880.81;;;20.62;72.54
28588;BME280;15787;49.662;10.162;2022-08-04T00:09:38;98880.44;;;20.74;72.79
28588;BME280;15787;49.662;10.162;2022-08-04T00:12:06;98876.03;;;20.73;72.43
28588;BME280;15787;49.662;10.162;2022-08-04T00:14:46;98879.00;;;20.59;72.69
28588;BME280;15787;49.662;10.162;2022-08-04T00:17:17;98876.44;;;20.61;72.07
28588;BME280;15787;49.662;10.162;2022-08-04T00:19:48;98877.53;;;20.69;71.53
28588;BME280;15787;49.662;10.162;2022-08-04T00:22:21;98875.56;;;20.49;71.52
28588;BME280;15787;49.662;10.162;2022-08-04T00:24:54;98877.19;;;20.56;71.35
28588;BME280;15787;49.662;10.162;2022-08-04T00:27:22;98873.69;;;20.72;71.35
28588;BME280;15787;49.662;10.162;2022-08-04T00:29:51;98868.03;;;20.77;71.14
28588;BME280;15787;49.662;10.162;2022-08-04T00:32:19;98877.28;;;20.72;70.71
28588;BME280;15787;49.662;10.162;2022-08-04T00:35:00;98874.81;;;20.54;71.30
28588;BME280;15787;49.662;10.162;2022-08-04T00:37:28;98875.88;;;20.57;71.10
28588;BME280;15787;49.662;10.162;2022-08-04T00:39:56;98872.91;;;20.40;71.10
28588;BME280;15787;49.662;10.162;2022-08-04T00:42:40;98875.84;;;20.51;71.24
28588;BME280;15787;49.662;10.162;2022-08-04T00:46:06;98875.94;;;20.62;71.56
28588;BME280;15787;49.662;10.162;2022-08-04T00:49:01;98877.81;;;20.40;71.42
28588;BME280;15787;49.662;10.162;2022-08-04T00:51:39;98877.44;;;20.58;71.89
28588;BME280;15787;49.662;10.162;2022-08-04T00:54:11;98870.59;;;20.39;71.81
28588;BME280;15787;49.662;10.162;2022-08-04T00:57:00;98866.84;;;20.27;72.17
28588;BME280;15787;49.662;10.162;2022-08-04T00:59:43;98873.81;;;20.26;71.85
28588;BME280;15787;49.662;10.162;2022-08-04T01:02:28;98875.28;;;20.22;72.00
28588;BME280;15787;49.662;10.162;2022-08-04T01:05:03;98879.13;;;20.18;71.96
28588;BME280;15787;49.662;10.162;2022-08-04T01:08:10;98876.31;;;20.18;72.20
28588;BME280;15787;49.662;10.162;2022-08-04T01:10:51;98873.00;;;20.00;72.74
28588;BME280;15787;49.662;10.162;2022-08-04T01:13:37;98868.28;;;19.91;73.59
28588;BME280;15787;49.662;10.162;2022-08-04T01:16:08;98865.06;;;20.04;73.07
28588;BME280;15787;49.662;10.162;2022-08-04T01:18:46;98861.75;;;20.05;73.20
28588;BME280;15787;49.662;10.162;2022-08-04T01:21:30;98875.41;;;19.61;75.14
28588;BME280;15787;49.662;10.162;2022-08-04T01:24:18;98872.94;;;19.94;73.91
28588;BME280;15787;49.662;10.162;2022-08-04T01:26:56;98874.34;;;20.04;73.60
28588;BME280;15787;49.662;10.162;2022-08-04T01:29:33;98871.88;;;19.92;74.41
28588;BME280;15787;49.662;10.162;2022-08-04T01:32:18;98880.19;;;19.95;75.01
28588;BME280;15787;49.662;10.162;2022-08-04T01:34:55;98867.78;;;19.93;75.38
28588;BME280;15787;49.662;10.162;2022-08-04T01:37:34;98875.72;;;19.89;76.20
28588;BME280;15787;49.662;10.162;2022-08-04T01:40:06;98873.13;;;19.85;76.07
28588;BME280;15787;49.662;10.162;2022-08-04T01:42:36;98875.25;;;19.70;75.61
28588;BME280;15787;49.662;10.162;2022-08-04T01:45:09;98870.16;;;19.74;75.64
28588;BME280;15787;49.662;10.162;2022-08-04T01:47:40;98868.31;;;19.71;76.02
28588;BME280;15787;49.662;10.162;2022-08-04T01:50:10;98864.34;;;19.63;76.65
28588;BME280;15787;49.662;10.162;2022-08-04T01:52:40;98863.06;;;19.64;76.02
28588;BME280;15787;49.662;10.162;2022-08-04T01:55:15;98866.47;;;19.48;75.88
28588;BME280;15787;49.662;10.162;2022-08-04T01:57:45;98867.78;;;19.32;76.74
28588;BME280;15787;49.662;10.162;2022-08-04T02:00:17;98870.44;;;19.56;76.32
28588;BME280;15787;49.662;10.162;2022-08-04T02:02:46;98871.75;;;19.55;76.83
28588;BME280;15787;49.662;10.162;2022-08-04T02:05:16;98868.31;;;19.51;77.44
28588;BME280;15787;49.662;10.162;2022-08-04T02:07:51;98865.75;;;19.33;77.09
28588;BME280;15787;49.662;10.162;2022-08-04T02:10:27;98864.28;;;19.37;76.51
28588;BME280;15787;49.662;10.162;2022-08-04T02:13:05;98867.28;;;19.14;76.98
28588;BME280;15787;49.662;10.162;2022-08-04T02:15:52;98854.22;;;19.16;77.37
28588;BME280;15787;49.662;10.162;2022-08-04T02:18:26;98855.13;;;19.28;77.23
28588;BME280;15787;49.662;10.162;2022-08-04T02:20:59;98859.28;;;19.32;77.08
28588;BME280;15787;49.662;10.162;2022-08-04T02:23:30;98864.13;;;19.26;77.66
28588;BME280;15787;49.662;10.162;2022-08-04T02:26:01;98867.41;;;19.39;78.18
28588;BME280;15787;49.662;10.162;2022-08-04T02:28:32;98875.88;;;19.19;78.21
28588;BME280;15787;49.662;10.162;2022-08-04T02:31:22;98861.13;;;19.35;78.27
28588;BME280;15787;49.662;10.162;2022-08-04T02:34:00;98855.00;;;19.17;78.42
28588;BME280;15787;49.662;10.162;2022-08-04T02:36:35;98859.09;;;19.16;77.72
28588;BME280;15787;49.662;10.162;2022-08-04T02:39:05;98860.78;;;19.08;78.59
28588;BME280;15787;49.662;10.162;2022-08-04T02:41:34;98865.16;;;19.09;78.20
28588;BME280;15787;49.662;10.162;2022-08-04T02:44:05;98857.66;;;19.06;77.51
28588;BME280;15787;49.662;10.162;2022-08-04T02:46:36;98858.91;;;19.05;77.29
28588;BME280;15787;49.662;10.162;2022-08-04T02:49:06;98850.44;;;19.05;77.44
28588;BME280;15787;49.662;10.162;2022-08-04T02:51:36;98849.25;;;19.11;77.81
28588;BME280;15787;49.662;10.162;2022-08-04T02:54:05;98854.03;;;19.05;78.49
28588;BME280;15787;49.662;10.162;2022-08-04T02:56:36;98854.66;;;18.94;78.82
28588;BME280;15787;49.662;10.162;2022-08-04T02:59:07;98858.78;;;18.93;78.97
28588;BME280;15787;49.662;10.162;2022-08-04T03:01:37;98857.22;;;18.92;78.33
28588;BME280;15787;49.662;10.162;2022-08-04T03:04:34;98848.63;;;18.87;78.60
28588;BME280;15787;49.662;10.162;2022-08-04T03:07:30;98859.94;;;18.87;78.42
28588;BME280;15787;49.662;10.162;2022-08-04T03:10:37;98856.66;;;18.88;78.29
28588;BME280;15787;49.662;10.162;2022-08-04T03:13:39;98860.47;;;18.85;79.09
28588;BME280;15787;49.662;10.162;2022-08-04T03:20:17;98853.78;;;18.54;80.41
28588;BME280;15787;49.662;10.162;2022-08-04T03:23:05;98852.81;;;18.57;80.12
28588;BME280;15787;49.662;10.162;2022-08-04T03:26:04;98847.75;;;18.61;80.63
28588;BME280;15787;49.662;10.162;2022-08-04T03:31:51;98861.94;;;18.66;80.35
28588;BME280;15787;49.662;10.162;2022-08-04T03:34:39;98859.63;;;18.65;80.56
28588;BME280;15787;49.662;10.162;2022-08-04T03:37:22;98872.97;;;18.64;80.22
28588;BME280;15787;49.662;10.162;2022-08-04T03:46:35;98863.72;;;18.49;80.67
28588;BME280;15787;49.662;10.162;2022-08-04T03:49:35;98863.31;;;18.42;80.96
28588;BME280;15787;49.662;10.162;2022-08-04T03:52:16;98875.44;;;18.57;81.64
28588;BME280;15787;49.662;10.162;2022-08-04T03:55:28;98870.84;;;18.30;82.32
28588;BME280;15787;49.662;10.162;2022-08-04T03:58:26;98862.66;;;18.47;81.29
28588;BME280;15787;49.662;10.162;2022-08-04T04:01:09;98865.69;;;18.43;81.67
28588;BME280;15787;49.662;10.162;2022-08-04T04:03:57;98861.00;;;18.40;81.54
28588;BME280;15787;49.662;10.162;2022-08-04T04:19:00;98870.25;;;18.70;82.58
28588;BME280;15787;49.662;10.162;2022-08-04T04:21:52;98872.56;;;18.71;82.91
28588;BME280;15787;49.662;10.162;2022-08-04T04:24:48;98868.66;;;18.69;82.77
28588;BME280;15787;49.662;10.162;2022-08-04T04:27:32;98869.84;;;18.77;82.42
28588;BME280;15787;49.662;10.162;2022-08-04T04:30:07;98873.84;;;18.70;82.40
28588;BME280;15787;49.662;10.162;2022-08-04T04:33:02;98866.97;;;18.91;81.65
28588;BME280;15787;49.662;10.162;2022-08-04T04:35:40;98870.09;;;18.93;81.70
28588;BME280;15787;49.662;10.162;2022-08-04T04:38:29;98873.63;;;18.88;81.61
28588;BME280;15787;49.662;10.162;2022-08-04T04:41:07;98873.22;;;18.96;81.35
28588;BME280;15787;49.662;10.162;2022-08-04T04:44:00;98870.88;;;18.94;81.49
28588;BME280;15787;49.662;10.162;2022-08-04T04:46:42;98870.94;;;19.00;80.62
28588;BME280;15787;49.662;10.162;2022-08-04T04:49:19;98870.75;;;19.03;80.79
28588;BME280;15787;49.662;10.162;2022-08-04T04:51:58;98881.19;;;18.97;81.39
28588;BME280;15787;49.662;10.162;2022-08-04T04:54:31;98887.06;;;18.93;81.44
28588;BME280;15787;49.662;10.162;2022-08-04T04:57:04;98886.66;;;19.01;81.83
28588;BME280;15787;49.662;10.162;2022-08-04T04:59:37;98887.72;;;19.03;82.07
28588;BME280;15787;49.662;10.162;2022-08-04T05:02:32;98883.91;;;19.06;82.16
28588;BME280;15787;49.662;10.162;2022-08-04T05:05:25;98882.06;;;19.03;81.77
28588;BME280;15787;49.662;10.162;2022-08-04T05:14:13;98885.06;;;19.14;82.02
28588;BME280;15787;49.662;10.162;2022-08-04T05:17:11;98884.28;;;19.14;81.80
28588;BME280;15787;49.662;10.162;2022-08-04T05:19:52;98887.41;;;19.36;81.78
28588;BME280;15787;49.662;10.162;2022-08-04T05:22:27;98887.25;;;19.25;81.75
28588;BME280;15787;49.662;10.162;2022-08-04T05:25:02;98883.91;;;19.06;81.78
28588;BME280;15787;49.662;10.162;2022-08-04T05:27:36;98882.78;;;19.18;81.15
28588;BME280;15787;49.662;10.162;2022-08-04T05:30:07;98878.03;;;19.44;79.96
28588;BME280;15787;49.662;10.162;2022-08-04T05:32:47;98888.38;;;19.68;79.05
28588;BME280;15787;49.662;10.162;2022-08-04T05:35:28;98885.72;;;19.84;79.14
28588;BME280;15787;49.662;10.162;2022-08-04T05:38:22;98892.16;;;19.85;79.20
28588;BME280;15787;49.662;10.162;2022-08-04T05:40:53;98896.75;;;20.02;78.34
28588;BME280;15787;49.662;10.162;2022-08-04T05:43:22;98895.63;;;20.20;79.43
28588;BME280;15787;49.662;10.162;2022-08-04T05:45:51;98903.59;;;20.42;77.65
28588;BME280;15787;49.662;10.162;2022-08-04T05:48:19;98900.34;;;20.49;76.99
28588;BME280;15787;49.662;10.162;2022-08-04T05:50:49;98898.25;;;20.49;76.94
28588;BME280;15787;49.662;10.162;2022-08-04T05:53:18;98899.47;;;20.68;77.09
28588;BME280;15787;49.662;10.162;2022-08-04T05:55:47;98905.97;;;20.74;77.35
28588;BME280;15787;49.662;10.162;2022-08-04T05:58:26;98910.34;;;20.75;76.76
28588;BME280;15787;49.662;10.162;2022-08-04T06:00:55;98913.44;;;20.77;76.21
28588;BME280;15787;49.662;10.162;2022-08-04T06:03:25;98900.97;;;21.01;75.96
28588;BME280;15787;49.662;10.162;2022-08-04T06:05:56;98906.53;;;21.15;75.36
28588;BME280;15787;49.662;10.162;2022-08-04T06:08:24;98908.50;;;21.46;73.66
28588;BME280;15787;49.662;10.162;2022-08-04T06:10:53;98896.50;;;21.79;72.91
28588;BME280;15787;49.662;10.162;2022-08-04T06:13:27;98904.75;;;21.66;73.48
28588;BME280;15787;49.662;10.162;2022-08-04T06:16:17;98900.44;;;21.81;72.54
28588;BME280;15787;49.662;10.162;2022-08-04T06:18:58;98900.25;;;22.07;72.29
28588;BME280;15787;49.662;10.162;2022-08-04T06:21:49;98895.13;;;22.22;71.60
28588;BME280;15787;49.662;10.162;2022-08-04T06:24:19;98897.47;;;22.40;71.34
28588;BME280;15787;49.662;10.162;2022-08-04T06:26:50;98899.09;;;22.75;70.72
28588;BME280;15787;49.662;10.162;2022-08-04T06:29:20;98901.63;;;23.17;69.18
28588;BME280;15787;49.662;10.162;2022-08-04T06:31:53;98905.19;;;23.34;68.80
28588;BME280;15787;49.662;10.162;2022-08-04T06:34:45;98899.72;;;23.64;68.12
28588;BME280;15787;49.662;10.162;2022-08-04T06:37:15;98899.34;;;23.89;67.59
28588;BME280;15787;49.662;10.162;2022-08-04T06:40:06;98895.25;;;24.67;65.97
28588;BME280;15787;49.662;10.162;2022-08-04T06:42:56;98900.41;;;25.28;63.53
28588;BME280;15787;49.662;10.162;2022-08-04T06:45:25;98900.03;;;25.42;62.64
28588;BME280;15787;49.662;10.162;2022-08-04T06:47:55;98895.75;;;25.73;62.18
28588;BME280;15787;49.662;10.162;2022-08-04T06:50:23;98899.13;;;25.96;61.40
28588;BME280;15787;49.662;10.162;2022-08-04T06:53:13;98903.81;;;26.17;61.17
28588;BME280;15787;49.662;10.162;2022-08-04T06:55:42;98903.41;;;26.26;61.20
28588;BME280;15787;49.662;10.162;2022-08-04T06:58:11;98899.09;;;26.70;59.49
28588;BME280;15787;49.662;10.162;2022-08-04T07:00:41;98896.66;;;26.93;59.98
28588;BME280;15787;49.662;10.162;2022-08-04T07:03:09;98902.00;;;27.15;59.11
28588;BME280;15787;49.662;10.162;2022-08-04T07:05:39;98906.84;;;27.07;59.71
28588;BME280;15787;49.662;10.162;2022-08-04T07:08:09;98909.72;;;27.20;59.18
28588;BME280;15787;49.662;10.162;2022-08-04T07:10:39;98904.81;;;27.47;59.31
28588;BME280;15787;49.662;10.162;2022-08-04T07:13:07;98901.84;;;27.79;57.86
28588;BME280;15787;49.662;10.162;2022-08-04T07:15:38;98905.91;;;27.83;57.50
28588;BME280;15787;49.662;10.162;2022-08-04T07:18:07;98895.53;;;28.06;57.58
28588;BME280;15787;49.662;10.162;2022-08-04T07:20:39;98896.97;;;28.47;57.69
28588;BME280;15787;49.662;10.162;2022-08-04T07:23:08;98894.50;;;28.64;56.25
28588;BME280;15787;49.662;10.162;2022-08-04T07:25:39;98892.59;;;28.87;55.54
28588;BME280;15787;49.662;10.162;2022-08-04T07:28:28;98886.19;;;29.43;54.10
28588;BME280;15787;49.662;10.162;2022-08-04T07:30:57;98886.38;;;29.45;53.24
28588;BME280;15787;49.662;10.162;2022-08-04T07:33:26;98893.75;;;29.82;53.17
28588;BME280;15787;49.662;10.162;2022-08-04T07:35:55;98893.03;;;29.96;52.07
28588;BME280;15787;49.662;10.162;2022-08-04T07:38:38;98887.28;;;30.40;51.40
28588;BME280;15787;49.662;10.162;2022-08-04T07:41:21;98900.53;;;30.35;50.85
28588;BME280;15787;49.662;10.162;2022-08-04T07:44:05;98901.59;;;30.76;50.39
28588;BME280;15787;49.662;10.162;2022-08-04T07:46:34;98887.81;;;31.04;50.57
28588;BME280;15787;49.662;10.162;2022-08-04T07:49:03;98888.75;;;31.30;50.57
28588;BME280;15787;49.662;10.162;2022-08-04T07:51:31;98873.75;;;31.23;50.15
28588;BME280;15787;49.662;10.162;2022-08-04T07:54:02;98883.97;;;31.47;49.27
28588;BME280;15787;49.662;10.162;2022-08-04T07:56:34;98878.09;;;31.77;49.18
28588;BME280;15787;49.662;10.162;2022-08-04T07:59:03;98881.94;;;31.87;48.60
28588;BME280;15787;49.662;10.162;2022-08-04T08:01:32;98874.19;;;32.05;48.81
28588;BME280;15787;49.662;10.162;2022-08-04T08:04:01;98873.72;;;32.24;48.48
28588;BME280;15787;49.662;10.162;2022-08-04T08:06:33;98876.72;;;32.73;48.04
28588;BME280;15787;49.662;10.162;2022-08-04T08:09:10;98874.72;;;32.59;47.38
28588;BME280;15787;49.662;10.162;2022-08-04T08:11:43;98866.16;;;32.93;46.91
28588;BME280;15787;49.662;10.162;2022-08-04T08:14:31;98863.38;;;32.53;46.98
28588;BME280;15787;49.662;10.162;2022-08-04T08:17:00;98864.81;;;32.94;46.20
28588;BME280;15787;49.662;10.162;2022-08-04T08:19:29;98858.09;;;33.16;45.52
28588;BME280;15787;49.662;10.162;2022-08-04T08:21:57;98857.13;;;32.64;46.23
28588;BME280;15787;49.662;10.162;2022-08-04T08:24:26;98856.91;;;33.19;46.13
28588;BME280;15787;49.662;10.162;2022-08-04T08:26:56;98854.97;;;33.22;45.02
28588;BME280;15787;49.662;10.162;2022-08-04T08:29:25;98850.97;;;33.17;44.91
28588;BME280;15787;49.662;10.162;2022-08-04T08:31:56;98855.13;;;33.24;45.20
28588;BME280;15787;49.662;10.162;2022-08-04T08:34:32;98843.91;;;33.28;44.79
28588;BME280;15787;49.662;10.162;2022-08-04T08:37:03;98843.63;;;33.58;44.66
28588;BME280;15787;49.662;10.162;2022-08-04T08:39:38;98849.41;;;33.58;44.06
28588;BME280;15787;49.662;10.162;2022-08-04T08:45:31;98845.56;;;33.90;43.03
28588;BME280;15787;49.662;10.162;2022-08-04T08:48:14;98844.22;;;33.74;43.08
28588;BME280;15787;49.662;10.162;2022-08-04T08:51:22;98839.47;;;33.68;42.97
28588;BME280;15787;49.662;10.162;2022-08-04T08:54:27;98843.00;;;34.11;43.00
28588;BME280;15787;49.662;10.162;2022-08-04T08:57:15;98845.22;;;34.03;42.85
28588;BME280;15787;49.662;10.162;2022-08-04T09:00:02;98837.91;;;34.72;42.19
28588;BME280;15787;49.662;10.162;2022-08-04T09:03:00;98845.31;;;35.38;40.33
28588;BME280;15787;49.662;10.162;2022-08-04T09:05:44;98839.16;;;35.25;40.64
28588;BME280;15787;49.662;10.162;2022-08-04T09:08:25;98838.19;;;35.03;40.70
28588;BME280;15787;49.662;10.162;2022-08-04T09:10:59;98845.97;;;35.01;41.02
28588;BME280;15787;49.662;10.162;2022-08-04T09:13:39;98840.59;;;34.97;40.88
28588;BME280;15787;49.662;10.162;2022-08-04T09:16:14;98843.06;;;35.01;41.12
28588;BME280;15787;49.662;10.162;2022-08-04T09:18:46;98835.13;;;35.01;40.66
28588;BME280;15787;49.662;10.162;2022-08-04T09:21:24;98834.38;;;35.66;39.96
28588;BME280;15787;49.662;10.162;2022-08-04T09:24:02;98837.13;;;35.54;40.14
28588;BME280;15787;49.662;10.162;2022-08-04T09:26:55;98837.75;;;35.72;39.58
28588;BME280;15787;49.662;10.162;2022-08-04T09:29:31;98832.09;;;36.02;38.89
28588;BME280;15787;49.662;10.162;2022-08-04T09:32:09;98832.19;;;36.24;38.92
28588;BME280;15787;49.662;10.162;2022-08-04T09:34:46;98826.72;;;35.89;38.51
28588;BME280;15787;49.662;10.162;2022-08-04T09:37:39;98840.78;;;35.64;38.89
28588;BME280;15787;49.662;10.162;2022-08-04T09:40:19;98845.59;;;35.23;39.05
28588;BME280;15787;49.662;10.162;2022-08-04T09:43:13;98832.22;;;36.33;38.11
28588;BME280;15787;49.662;10.162;2022-08-04T09:45:56;98825.91;;;36.87;37.78
28588;BME280;15787;49.662;10.162;2022-08-04T09:48:33;98827.44;;;36.47;37.38
28588;BME280;15787;49.662;10.162;2022-08-04T09:51:10;98819.38;;;36.17;37.01
28588;BME280;15787;49.662;10.162;2022-08-04T09:53:52;98813.38;;;36.34;36.71
28588;BME280;15787;49.662;10.162;2022-08-04T09:56:22;98813.84;;;36.31;35.99
28588;BME280;15787;49.662;10.162;2022-08-04T09:59:00;98811.06;;;36.42;35.94
28588;BME280;15787;49.662;10.162;2022-08-04T10:01:32;98817.00;;;36.54;35.94
28588;BME280;15787;49.662;10.162;2022-08-04T10:04:05;98821.00;;;36.89;35.55
28588;BME280;15787;49.662;10.162;2022-08-04T10:06:52;98810.25;;;37.01;35.24
28588;BME280;15787;49.662;10.162;2022-08-04T10:09:46;98811.78;;;37.23;35.72
28588;BME280;15787;49.662;10.162;2022-08-04T10:12:30;98800.28;;;37.89;34.87
28588;BME280;15787;49.662;10.162;2022-08-04T10:15:08;98805.19;;;37.23;34.80
28588;BME280;15787;49.662;10.162;2022-08-04T10:17:44;98800.84;;;37.76;34.56
28588;BME280;15787;49.662;10.162;2022-08-04T10:20:25;98795.44;;;37.82;34.25
28588;BME280;15787;49.662;10.162;2022-08-04T10:23:20;98799.91;;;37.62;34.05
28588;BME280;15787;49.662;10.162;2022-08-04T10:26:01;98795.25;;;37.47;33.82
28588;BME280;15787;49.662;10.162;2022-08-04T10:28:40;98786.44;;;37.57;34.39
28588;BME280;15787;49.662;10.162;2022-08-04T10:31:15;98782.53;;;38.18;33.65
28588;BME280;15787;49.662;10.162;2022-08-04T10:33:49;98790.59;;;37.32;34.21
28588;BME280;15787;49.662;10.162;2022-08-04T10:36:22;98789.06;;;37.31;34.27
28588;BME280;15787;49.662;10.162;2022-08-04T10:38:57;98780.41;;;37.43;33.98
28588;BME280;15787;49.662;10.162;2022-08-04T10:41:32;98787.78;;;38.31;33.70
28588;BME280;15787;49.662;10.162;2022-08-04T10:44:13;98781.94;;;38.42;32.99
28588;BME280;15787;49.662;10.162;2022-08-04T10:46:48;98776.28;;;38.44;33.52
28588;BME280;15787;49.662;10.162;2022-08-04T10:49:21;98777.06;;;38.91;32.81
28588;BME280;15787;49.662;10.162;2022-08-04T10:51:52;98777.53;;;39.11;32.58
28588;BME280;15787;49.662;10.162;2022-08-04T10:54:31;98771.25;;;39.63;32.42
28588;BME280;15787;49.662;10.162;2022-08-04T10:57:12;98772.13;;;38.82;32.73
28588;BME280;15787;49.662;10.162;2022-08-04T10:59:46;98772.16;;;39.42;32.23
28588;BME280;15787;49.662;10.162;2022-08-04T11:02:35;98764.06;;;39.77;32.49
28588;BME280;15787;49.662;10.162;2022-08-04T11:05:11;98761.38;;;38.29;32.83
28588;BME280;15787;49.662;10.162;2022-08-04T11:07:43;98764.97;;;38.39;32.71
28588;BME280;15787;49.662;10.162;2022-08-04T11:10:14;98762.19;;;38.99;32.76
28588;BME280;15787;49.662;10.162;2022-08-04T11:12:46;98770.47;;;39.62;31.80
28588;BME280;15787;49.662;10.162;2022-08-04T11:15:20;98771.47;;;39.18;31.52
28588;BME280;15787;49.662;10.162;2022-08-04T11:17:55;98764.59;;;39.74;31.55
28588;BME280;15787;49.662;10.162;2022-08-04T11:20:28;98761.13;;;39.77;31.99
28588;BME280;15787;49.662;10.162;2022-08-04T11:23:05;98760.56;;;39.93;32.30
28588;BME280;15787;49.662;10.162;2022-08-04T11:25:43;98757.53;;;39.91;31.99
28588;BME280;15787;49.662;10.162;2022-08-04T11:28:22;98770.84;;;39.94;32.24
28588;BME280;15787;49.662;10.162;2022-08-04T11:30:56;98765.81;;;40.33;31.81
28588;BME280;15787;49.662;10.162;2022-08-04T11:33:33;98769.38;;;39.44;32.16
28588;BME280;15787;49.662;10.162;2022-08-04T11:36:09;98764.19;;;39.31;32.34
28588;BME280;15787;49.662;10.162;2022-08-04T11:38:46;98768.25;;;39.26;32.60
28588;BME280;15787;49.662;10.162;2022-08-04T11:41:21;98759.53;;;40.25;32.23
28588;BME280;15787;49.662;10.162;2022-08-04T11:43:54;98762.56;;;40.02;32.07
28588;BME280;15787;49.662;10.162;2022-08-04T11:46:35;98754.00;;;40.70;31.43
28588;BME280;15787;49.662;10.162;2022-08-04T11:49:07;98756.56;;;40.50;32.10
28588;BME280;15787;49.662;10.162;2022-08-04T11:51:38;98753.16;;;40.42;31.50
28588;BME280;15787;49.662;10.162;2022-08-04T11:54:06;98741.38;;;40.54;31.35
28588;BME280;15787;49.662;10.162;2022-08-04T11:56:35;98752.44;;;39.91;31.62
28588;BME280;15787;49.662;10.162;2022-08-04T11:59:05;98752.00;;;39.35;32.37
28588;BME280;15787;49.662;10.162;2022-08-04T12:01:41;98751.28;;;38.88;32.41
28588;BME280;15787;49.662;10.162;2022-08-04T12:04:16;98748.16;;;39.44;32.29
28588;BME280;15787;49.662;10.162;2022-08-04T12:06:50;98749.56;;;39.43;31.89
28588;BME280;15787;49.662;10.162;2022-08-04T12:09:46;98747.00;;;40.88;32.06
28588;BME280;15787;49.662;10.162;2022-08-04T12:12:24;98738.03;;;39.95;32.57
28588;BME280;15787;49.662;10.162;2022-08-04T12:14:59;98741.44;;;40.94;31.67
28588;BME280;15787;49.662;10.162;2022-08-04T12:17:37;98737.75;;;41.21;31.72
28588;BME280;15787;49.662;10.162;2022-08-04T12:20:22;98729.25;;;41.70;30.89
28588;BME280;15787;49.662;10.162;2022-08-04T12:23:14;98733.81;;;41.44;30.95
28588;BME280;15787;49.662;10.162;2022-08-04T12:25:46;98728.56;;;41.56;31.80
28588;BME280;15787;49.662;10.162;2022-08-04T12:28:23;98733.47;;;41.51;30.86
28588;BME280;15787;49.662;10.162;2022-08-04T12:30:56;98724.88;;;41.55;31.70
28588;BME280;15787;49.662;10.162;2022-08-04T12:33:41;98722.97;;;41.76;31.60
28588;BME280;15787;49.662;10.162;2022-08-04T12:37:25;98716.38;;;41.62;31.59
28588;BME280;15787;49.662;10.162;2022-08-04T12:40:00;98718.13;;;40.17;32.06
28588;BME280;15787;49.662;10.162;2022-08-04T12:42:54;98711.69;;;40.59;32.36
28588;BME280;15787;49.662;10.162;2022-08-04T12:45:27;98712.47;;;40.60;31.68
28588;BME280;15787;49.662;10.162;2022-08-04T12:47:58;98711.34;;;39.39;32.23
28588;BME280;15787;49.662;10.162;2022-08-04T12:50:26;98710.69;;;39.77;32.44
28588;BME280;15787;49.662;10.162;2022-08-04T12:52:55;98716.81;;;39.69;32.24
28588;BME280;15787;49.662;10.162;2022-08-04T12:55:32;98703.19;;;40.38;32.10
28588;BME280;15787;49.662;10.162;2022-08-04T12:58:01;98702.50;;;40.65;31.36
28588;BME280;15787;49.662;10.162;2022-08-04T13:00:34;98698.75;;;41.75;31.64
28588;BME280;15787;49.662;10.162;2022-08-04T13:03:10;98689.06;;;41.86;30.60
28588;BME280;15787;49.662;10.162;2022-08-04T13:05:39;98683.19;;;41.86;30.81
28588;BME280;15787;49.662;10.162;2022-08-04T13:08:09;98690.97;;;41.66;31.62
28588;BME280;15787;49.662;10.162;2022-08-04T13:10:39;98698.75;;;41.75;31.34
28588;BME280;15787;49.662;10.162;2022-08-04T13:13:14;98689.25;;;40.77;31.59
28588;BME280;15787;49.662;10.162;2022-08-04T13:15:53;98687.63;;;41.02;31.59
28588;BME280;15787;49.662;10.162;2022-08-04T13:18:23;98683.72;;;42.12;31.10
28588;BME280;15787;49.662;10.162;2022-08-04T13:21:09;98674.78;;;41.94;30.98
28588;BME280;15787;49.662;10.162;2022-08-04T13:23:49;98675.00;;;41.69;31.09
28588;BME280;15787;49.662;10.162;2022-08-04T13:26:46;98657.19;;;41.94;30.83
28588;BME280;15787;49.662;10.162;2022-08-04T13:29:23;98656.78;;;41.28;31.03
28588;BME280;15787;49.662;10.162;2022-08-04T13:32:17;98660.53;;;41.01;31.11
28588;BME280;15787;49.662;10.162;2022-08-04T13:34:53;98664.66;;;41.82;31.00
28588;BME280;15787;49.662;10.162;2022-08-04T13:37:24;98655.34;;;42.16;31.09
28588;BME280;15787;49.662;10.162;2022-08-04T13:39:54;98660.25;;;42.28;30.90
28588;BME280;15787;49.662;10.162;2022-08-04T13:42:24;98660.94;;;41.09;31.47
28588;BME280;15787;49.662;10.162;2022-08-04T13:44:53;98653.34;;;42.21;31.26
28588;BME280;15787;49.662;10.162;2022-08-04T13:47:27;98651.34;;;41.22;31.28
28588;BME280;15787;49.662;10.162;2022-08-04T13:50:09;98658.94;;;41.41;31.50
28588;BME280;15787;49.662;10.162;2022-08-04T13:52:39;98652.16;;;41.52;31.48
28588;BME280;15787;49.662;10.162;2022-08-04T13:55:08;98653.72;;;42.13;30.89
28588;BME280;15787;49.662;10.162;2022-08-04T13:57:43;98643.00;;;42.04;30.68
28588;BME280;15787;49.662;10.162;2022-08-04T14:00:12;98647.84;;;41.69;31.08
28588;BME280;15787;49.662;10.162;2022-08-04T14:03:03;98638.53;;;42.03;30.76
28588;BME280;15787;49.662;10.162;2022-08-04T14:06:12;98631.00;;;41.11;31.21
28588;BME280;15787;49.662;10.162;2022-08-04T14:08:50;98641.78;;;41.65;31.30
28588;BME280;15787;49.662;10.162;2022-08-04T14:11:21;98634.88;;;41.58;31.39
28588;BME280;15787;49.662;10.162;2022-08-04T14:14:18;98631.56;;;42.42;31.02
28588;BME280;15787;49.662;10.162;2022-08-04T14:17:01;98622.50;;;41.30;31.19
28588;BME280;15787;49.662;10.162;2022-08-04T14:19:48;98623.22;;;41.60;31.27
28588;BME280;15787;49.662;10.162;2022-08-04T14:22:31;98626.06;;;42.03;30.04